Time;durP1;ratioP1;P1;durP2;ratioP2;P2;SDS_P1;SDS_P2;PMS_P1;PMS_P2;Temp;Humidity;BMP_temperature;BMP_pressure;BME280_temperature;BME280_humidity;BME280_pressure;Samples;Min_cycle;Max_cycle;Signal;HPM_P1;HPM_P2
2023/07/05 00:00:24;;;;;;;8.57;3.60;;;;;;;14.42;68.14;99166.44;5083295;28;20047;-44
2023/07/05 00:02:52;;;;;;;8.80;4.00;;;;;;;14.39;67.65;99168.22;5084184;27;20040;-44
2023/07/05 00:05:20;;;;;;;7.72;3.53;;;;;;;14.38;67.59;99166.53;5084235;28;20051;-40
2023/07/05 00:07:47;;;;;;;9.30;3.80;;;;;;;14.35;67.96;99166.63;5090235;28;20040;-43
2023/07/05 00:10:14;;;;;;;6.93;3.42;;;;;;;14.33;67.99;99173.66;5087733;28;20090;-42
2023/07/05 00:12:41;;;;;;;6.85;3.75;;;;;;;14.30;68.37;99171.16;5087813;28;20044;-47
2023/07/05 00:15:08;;;;;;;6.65;3.40;;;;;;;14.26;68.08;99166.94;5087499;28;20052;-45
2023/07/05 00:17:35;;;;;;;9.00;4.10;;;;;;;14.23;67.82;99161.81;5089888;28;20054;-42
2023/07/05 00:20:04;;;;;;;7.65;3.65;;;;;;;14.21;68.26;99163.63;5085400;28;20048;-43
2023/07/05 00:22:31;;;;;;;12.93;3.78;;;;;;;14.17;68.21;99156.81;5083384;28;20047;-42
2023/07/05 00:25:01;;;;;;;8.10;3.50;;;;;;;14.13;68.03;99167.34;5087326;28;20069;-48
2023/07/05 00:27:28;;;;;;;8.90;4.40;;;;;;;14.08;67.60;99161.41;5086843;28;20465;-42
2023/07/05 00:29:55;;;;;;;8.70;3.28;;;;;;;14.05;68.42;99166.72;5084758;28;20071;-40
2023/07/05 00:32:22;;;;;;;6.97;3.63;;;;;;;14.01;67.57;99162.50;5077982;28;20044;-42
2023/07/05 00:34:49;;;;;;;6.47;2.95;;;;;;;13.96;67.80;99159.19;5086820;28;20127;-44
2023/07/05 00:37:16;;;;;;;5.05;3.42;;;;;;;13.91;68.11;99161.09;5086370;28;20086;-42
2023/07/05 00:39:42;;;;;;;9.40;3.58;;;;;;;13.88;67.81;99157.69;5084081;28;20051;-42
2023/07/05 00:42:09;;;;;;;7.93;3.63;;;;;;;13.82;68.04;99155.25;5085838;28;20062;-46
2023/07/05 00:44:35;;;;;;;6.63;3.22;;;;;;;13.80;68.01;99159.66;5083970;28;20044;-45
2023/07/05 00:47:18;;;;;;;7.43;4.03;;;;;;;13.75;68.62;99156.38;5078752;28;20153;-44
2023/07/05 00:49:45;;;;;;;5.03;2.90;;;;;;;13.70;68.25;99159.09;5086311;28;20131;-42
2023/07/05 00:52:16;;;;;;;8.60;3.28;;;;;;;13.68;67.62;99165.25;5083306;28;20052;-42
2023/07/05 00:54:47;;;;;;;7.22;3.10;;;;;;;13.65;68.06;99166.19;5083603;28;20056;-44
2023/07/05 00:57:18;;;;;;;6.05;3.05;;;;;;;13.61;68.25;99161.94;5088071;28;20047;-42
2023/07/05 01:00:00;;;;;;;6.95;2.90;;;;;;;13.55;67.43;99164.75;5089312;28;20043;-41
2023/07/05 01:02:27;;;;;;;7.20;3.03;;;;;;;13.54;67.32;99168.25;5085838;28;20515;-50
2023/07/05 01:04:54;;;;;;;5.35;2.40;;;;;;;13.50;68.73;99167.47;5080467;28;20055;-49
2023/07/05 01:07:21;;;;;;;7.43;2.75;;;;;;;13.46;67.38;99173.63;5086404;28;21193;-43
2023/07/05 01:09:48;;;;;;;5.95;2.78;;;;;;;13.43;67.63;99179.78;5087856;28;20044;-41
2023/07/05 01:12:25;;;;;;;6.70;3.00;;;;;;;13.41;68.01;99188.53;5085457;28;20054;-45
2023/07/05 01:31:54;;;;;;;4.82;2.40;;;;;;;12.97;67.37;99197.50;5021150;27;20398;-47
2023/07/05 01:37:05;;;;;;;6.10;1.75;;;;;;;12.93;67.07;99204.53;5017789;27;20415;-45
2023/07/05 01:39:32;;;;;;;3.20;1.90;;;;;;;12.88;67.25;99195.13;5004487;28;20046;-44
2023/07/05 01:42:01;;;;;;;5.43;1.98;;;;;;;12.83;67.76;99193.50;5020531;28;20045;-40
2023/07/05 01:44:28;;;;;;;7.30;1.90;;;;;;;12.77;66.77;99198.84;5001697;28;20049;-44
2023/07/05 01:47:17;;;;;;;4.70;2.20;;;;;;;12.64;67.30;99200.06;5005494;28;20129;-45
2023/07/05 01:52:53;;;;;;;2.85;1.65;;;;;;;12.57;68.07;99201.97;5022198;27;20414;-45
2023/07/05 01:55:31;;;;;;;5.32;2.17;;;;;;;12.48;68.01;99203.03;5022292;28;20045;-46
2023/07/05 01:58:07;;;;;;;5.22;1.73;;;;;;;12.45;68.19;99197.91;5019728;28;20038;-42
2023/07/05 02:00:38;;;;;;;5.50;2.03;;;;;;;12.40;67.85;99199.78;5020267;28;20156;-42
2023/07/05 02:03:09;;;;;;;3.42;1.80;;;;;;;12.37;67.66;99199.84;5022078;28;20604;-42
2023/07/05 02:05:37;;;;;;;2.97;1.80;;;;;;;12.31;67.70;99195.66;5017953;28;20623;-43
2023/07/05 02:08:04;;;;;;;4.05;2.00;;;;;;;12.29;67.01;99192.25;5022160;28;20045;-47
2023/07/05 02:10:32;;;;;;;4.55;2.05;;;;;;;12.25;67.11;99201.84;5024334;28;20049;-46
2023/07/05 02:13:02;;;;;;;6.50;1.73;;;;;;;12.21;67.50;99195.03;5019519;28;20129;-42
2023/07/05 02:15:29;;;;;;;4.43;2.03;;;;;;;12.14;67.55;99199.50;5020152;28;20041;-46
2023/07/05 02:17:56;;;;;;;3.47;1.85;;;;;;;12.08;67.27;99205.69;5018783;28;20054;-51
2023/07/05 02:20:22;;;;;;;3.65;2.05;;;;;;;12.05;66.91;99205.72;5015287;28;20103;-44
2023/07/05 02:22:49;;;;;;;5.80;1.73;;;;;;;12.01;67.03;99204.09;5015190;28;20056;-44
2023/07/05 02:25:16;;;;;;;3.35;1.70;;;;;;;11.97;67.90;99212.81;5019100;28;20058;-44
2023/07/05 02:27:43;;;;;;;4.95;1.85;;;;;;;11.95;67.69;99209.41;5020421;28;20045;-42
2023/07/05 02:30:10;;;;;;;5.40;1.80;;;;;;;11.91;67.67;99218.13;5016888;28;20046;-40
2023/07/05 02:32:37;;;;;;;4.55;1.92;;;;;;;11.88;68.08;99223.38;5017976;28;20071;-44
2023/07/05 02:35:04;;;;;;;3.00;2.13;;;;;;;11.85;68.28;99231.25;5012646;28;20057;-44
2023/07/05 02:37:32;;;;;;;3.95;1.80;;;;;;;11.81;66.99;99227.88;5016189;28;20061;-45
2023/07/05 02:39:59;;;;;;;4.25;2.72;;;;;;;11.78;68.48;99233.97;5009461;28;20442;-41
2023/07/05 02:42:26;;;;;;;4.07;1.90;;;;;;;11.76;67.02;99235.72;5010814;28;20065;-41
2023/07/05 02:44:55;;;;;;;4.55;1.95;;;;;;;11.72;67.39;99228.91;5012515;28;20189;-45
2023/07/05 02:47:22;;;;;;;9.70;2.75;;;;;;;11.69;68.27;99232.41;5010567;28;20087;-44
2023/07/05 02:49:49;;;;;;;4.53;2.47;;;;;;;11.64;67.38;99230.81;5014756;28;20050;-46
2023/07/05 02:52:15;;;;;;;4.80;1.45;;;;;;;11.61;68.46;99226.53;5014715;28;20053;-44
2023/07/05 02:54:42;;;;;;;5.63;2.00;;;;;;;11.61;67.29;99230.84;5011910;28;20057;-39
2023/07/05 02:57:09;;;;;;;4.95;1.98;;;;;;;11.57;67.81;99233.53;5014539;28;20048;-43
2023/07/05 02:59:35;;;;;;;5.25;2.03;;;;;;;11.55;68.37;99232.69;5011228;28;20058;-45
2023/07/05 03:02:02;;;;;;;6.72;2.28;;;;;;;11.52;68.31;99231.91;5012884;28;20049;-42
2023/07/05 03:04:29;;;;;;;5.47;2.70;;;;;;;11.48;68.06;99235.47;5000520;28;20042;-43
2023/07/05 03:06:56;;;;;;;5.70;2.20;;;;;;;11.46;67.25;99237.22;5003966;28;20050;-41
2023/07/05 03:09:23;;;;;;;5.82;2.75;;;;;;;11.43;68.09;99238.13;5001768;28;20134;-44
2023/07/05 03:11:49;;;;;;;6.65;2.65;;;;;;;11.42;67.57;99242.44;4999976;28;20048;-47
2023/07/05 03:14:16;;;;;;;6.30;2.40;;;;;;;11.39;68.26;99241.66;5002754;28;20050;-43
2023/07/05 03:16:43;;;;;;;8.85;2.58;;;;;;;11.35;68.19;99240.84;5006261;28;20057;-42
2023/07/05 03:19:11;;;;;;;7.50;3.03;;;;;;;11.32;67.45;99240.94;5003097;28;20041;-41
2023/07/05 03:21:37;;;;;;;6.07;2.78;;;;;;;11.30;68.46;99246.16;5004660;28;20916;-43
2023/07/05 03:24:04;;;;;;;7.20;2.28;;;;;;;11.28;67.67;99255.69;5001642;28;20048;-44
2023/07/05 03:26:31;;;;;;;7.43;2.45;;;;;;;11.25;67.37;99250.53;4999601;28;20061;-46
2023/07/05 03:28:58;;;;;;;4.85;2.33;;;;;;;11.24;68.14;99258.34;5000085;28;20052;-41
2023/07/05 03:31:24;;;;;;;4.97;2.13;;;;;;;11.22;67.74;99258.41;5004227;28;20529;-42
2023/07/05 03:33:53;;;;;;;4.70;2.50;;;;;;;11.19;67.53;99261.03;5000285;28;20049;-42
2023/07/05 03:36:20;;;;;;;6.35;2.70;;;;;;;11.17;68.40;99262.78;5001870;28;20050;-40
2023/07/05 03:38:49;;;;;;;5.30;2.40;;;;;;;11.15;68.02;99259.41;5004319;28;20049;-42
2023/07/05 03:41:19;;;;;;;6.88;2.50;;;;;;;11.13;68.13;99255.97;4997928;28;20514;-43
2023/07/05 03:43:48;;;;;;;5.43;2.08;;;;;;;11.11;67.57;99262.91;4988674;28;20049;-48
2023/07/05 03:46:15;;;;;;;4.05;1.75;;;;;;;11.07;67.75;99256.09;4996774;28;20057;-43
2023/07/05 03:48:44;;;;;;;7.22;2.35;;;;;;;11.07;68.51;99266.44;4997953;28;20529;-42
2023/07/05 03:51:16;;;;;;;8.45;2.38;;;;;;;11.04;68.24;99268.19;4999884;28;20061;-49
2023/07/05 03:53:47;;;;;;;7.55;2.60;;;;;;;11.02;68.53;99264.75;5001817;28;20549;-42
2023/07/05 03:56:15;;;;;;;3.95;2.33;;;;;;;11.01;68.89;99275.19;5002615;28;20050;-41
2023/07/05 03:58:41;;;;;;;5.80;2.40;;;;;;;10.98;68.46;99278.66;5005904;28;20141;-43
2023/07/05 04:01:27;;;;;;;4.47;2.40;;;;;;;10.97;68.37;99279.53;5002134;28;20053;-45
2023/07/05 04:03:57;;;;;;;5.80;2.00;;;;;;;10.94;67.75;99287.38;4993573;28;20058;-41
2023/07/05 04:06:27;;;;;;;6.03;2.20;;;;;;;10.93;67.72;99285.66;5004743;28;20060;-47
2023/07/05 04:08:54;;;;;;;5.75;2.22;;;;;;;10.91;68.21;99282.25;5001976;28;20235;-44
2023/07/05 04:11:21;;;;;;;3.72;1.88;;;;;;;10.90;68.79;99285.72;5001046;28;20049;-43
2023/07/05 04:13:49;;;;;;;5.32;2.17;;;;;;;10.88;68.22;99287.47;5003805;28;20062;-42
2023/07/05 04:16:20;;;;;;;5.13;2.17;;;;;;;10.88;68.12;99290.06;5001235;28;20107;-51
2023/07/05 04:18:51;;;;;;;4.82;2.03;;;;;;;10.86;68.07;99286.63;4997199;28;20042;-47
2023/07/05 04:21:18;;;;;;;9.75;2.20;;;;;;;10.85;69.04;99292.72;4996676;28;20042;-41
2023/07/05 04:23:45;;;;;;;6.53;1.95;;;;;;;10.82;69.05;99291.03;5001618;28;20084;-42
2023/07/05 04:26:14;;;;;;;3.78;1.58;;;;;;;10.82;68.54;99297.94;4997471;28;20061;-41
2023/07/05 04:28:42;;;;;;;5.13;1.45;;;;;;;10.82;67.98;99303.13;4994531;28;20060;-42
2023/07/05 04:31:12;;;;;;;8.07;1.70;;;;;;;10.81;68.95;99297.09;4996382;28;20133;-44
2023/07/05 04:33:39;;;;;;;6.35;2.00;;;;;;;10.80;69.04;99303.13;4997632;28;20071;-42
2023/07/05 04:36:05;;;;;;;6.15;1.75;;;;;;;10.82;68.99;99310.88;5002824;28;20060;-46
2023/07/05 04:38:51;;;;;;;6.93;1.85;;;;;;;10.79;68.62;99315.25;5002328;28;20128;-45
2023/07/05 04:41:17;;;;;;;6.95;1.50;;;;;;;10.79;69.14;99307.47;5000582;28;20414;-43
2023/07/05 04:43:44;;;;;;;4.97;2.58;;;;;;;10.82;68.79;99308.28;4996638;28;20395;-42
2023/07/05 04:46:10;;;;;;;4.60;2.42;;;;;;;10.83;68.85;99305.69;4996945;28;20049;-49
2023/07/05 04:48:37;;;;;;;6.38;1.60;;;;;;;10.85;69.21;99313.44;4995662;28;20050;-44
2023/07/05 04:51:05;;;;;;;4.82;1.83;;;;;;;10.86;68.16;99315.13;4997889;28;20061;-43
2023/07/05 04:53:32;;;;;;;4.78;1.70;;;;;;;10.88;68.72;99313.38;4996988;28;20049;-46
2023/07/05 04:56:00;;;;;;;7.25;1.52;;;;;;;10.90;68.77;99309.88;5005754;28;20563;-44
2023/07/05 04:58:27;;;;;;;6.30;2.00;;;;;;;10.91;69.24;99314.19;4998001;28;20054;-43
2023/07/05 05:01:03;;;;;;;8.02;1.70;;;;;;;10.93;68.36;99316.75;4994400;28;20149;-43
2023/07/05 05:03:31;;;;;;;4.55;1.77;;;;;;;10.97;68.73;99322.75;4991196;28;20054;-47
2023/07/05 05:05:59;;;;;;;5.15;1.90;;;;;;;11.00;68.68;99318.38;5002569;28;20049;-45
2023/07/05 05:08:26;;;;;;;3.33;1.90;;;;;;;11.02;68.70;99329.53;5000643;28;20052;-47
2023/07/05 05:10:58;;;;;;;8.18;2.50;;;;;;;11.05;69.68;99329.50;5002444;28;20053;-44
2023/07/05 05:13:27;;;;;;;5.57;1.42;;;;;;;11.12;69.60;99334.59;4998650;28;20048;-47
2023/07/05 05:15:54;;;;;;;7.25;1.52;;;;;;;11.22;69.67;99343.94;4994684;28;20054;-47
2023/07/05 05:18:22;;;;;;;5.65;2.72;;;;;;;11.35;69.17;99348.91;4997475;28;20441;-45
2023/07/05 05:20:50;;;;;;;4.07;2.00;;;;;;;11.46;70.05;99348.72;4995995;28;20054;-45
2023/07/05 05:23:17;;;;;;;4.28;1.33;;;;;;;11.56;69.44;99351.09;4994770;28;20057;-44
2023/07/05 05:25:46;;;;;;;3.50;2.25;;;;;;;11.67;70.07;99352.66;4990194;28;20057;-44
2023/07/05 05:28:14;;;;;;;4.65;2.28;;;;;;;11.76;70.07;99349.88;4999822;28;20141;-43
2023/07/05 05:30:43;;;;;;;4.55;2.33;;;;;;;11.87;69.83;99348.81;4998543;28;20050;-42
2023/07/05 05:33:12;;;;;;;4.40;2.17;;;;;;;11.95;69.48;99345.22;4980157;28;20061;-43
2023/07/05 05:35:39;;;;;;;3.88;1.73;;;;;;;12.03;69.87;99347.63;5009250;28;20146;-41
2023/07/05 05:38:06;;;;;;;6.10;1.60;;;;;;;12.04;69.29;99351.97;5001058;28;20081;-38
2023/07/05 05:40:33;;;;;;;4.10;1.67;;;;;;;12.03;68.43;99358.00;5001568;28;20065;-43
2023/07/05 05:43:00;;;;;;;6.05;1.65;;;;;;;12.07;68.59;99359.72;4999951;28;20042;-43
2023/07/05 05:45:27;;;;;;;3.45;1.90;;;;;;;12.14;68.63;99359.59;5001641;28;20052;-46
2023/07/05 05:47:54;;;;;;;7.35;2.13;;;;;;;12.28;70.17;99352.38;4995618;28;20045;-40
2023/07/05 05:50:22;;;;;;;6.68;2.03;;;;;;;12.47;70.21;99358.00;5002916;28;20099;-45
2023/07/05 05:52:49;;;;;;;3.42;1.23;;;;;;;12.66;69.85;99372.38;4996641;28;20101;-43
2023/07/05 05:55:16;;;;;;;4.10;1.55;;;;;;;12.78;69.65;99372.09;5001139;28;20050;-36
2023/07/05 05:57:43;;;;;;;5.70;1.55;;;;;;;12.85;68.57;99376.25;5002926;28;20050;-40
2023/07/05 06:00:10;;;;;;;5.43;1.75;;;;;;;12.88;69.02;99377.06;4993378;28;20066;-48
2023/07/05 06:02:38;;;;;;;3.53;1.20;;;;;;;12.85;69.30;99376.25;4988493;28;20502;-42
2023/07/05 06:05:05;;;;;;;4.72;1.52;;;;;;;12.85;69.21;99375.38;5002148;28;20054;-38
2023/07/05 06:07:32;;;;;;;4.35;1.73;;;;;;;12.87;69.01;99385.75;4997917;28;20544;-46
2023/07/05 06:09:58;;;;;;;6.05;1.67;;;;;;;12.89;69.12;99382.22;4997138;28;20049;-45
2023/07/05 06:12:25;;;;;;;5.75;2.38;;;;;;;12.92;68.85;99379.56;5002524;28;20077;-40
2023/07/05 06:14:52;;;;;;;5.32;1.75;;;;;;;12.93;68.21;99385.59;4996610;28;20050;-43
2023/07/05 06:17:18;;;;;;;4.80;1.90;;;;;;;12.97;68.51;99392.47;5000264;28;20100;-38
2023/07/05 06:19:45;;;;;;;8.48;3.53;;;;;;;12.97;69.03;99387.25;4999654;28;20442;-41
2023/07/05 06:22:12;;;;;;;6.90;3.20;;;;;;;12.99;69.94;99395.84;4998831;28;20414;-43
2023/07/05 06:24:42;;;;;;;5.88;3.03;;;;;;;13.01;68.36;99399.28;4999072;28;20054;-46
2023/07/05 06:27:08;;;;;;;6.95;2.10;;;;;;;13.04;69.15;99404.41;4994610;28;20052;-44
2023/07/05 06:29:35;;;;;;;5.35;2.47;;;;;;;13.09;68.49;99405.16;4991214;28;20050;-40
2023/07/05 06:32:02;;;;;;;6.78;2.35;;;;;;;13.14;68.70;99399.00;5000203;28;20712;-46
2023/07/05 06:34:29;;;;;;;7.15;2.50;;;;;;;13.21;68.63;99406.59;4995584;28;20056;-48
2023/07/05 06:36:55;;;;;;;9.32;2.70;;;;;;;13.26;68.68;99403.91;4993720;28;20430;-46
2023/07/05 06:39:22;;;;;;;6.25;2.83;;;;;;;13.35;69.26;99403.66;4992868;28;20046;-40
2023/07/05 06:41:49;;;;;;;8.35;2.95;;;;;;;13.49;68.81;99405.09;4994141;28;20046;-43
2023/07/05 06:44:15;;;;;;;4.97;2.50;;;;;;;13.61;68.96;99410.00;4999900;28;20518;-45
2023/07/05 06:46:42;;;;;;;6.07;2.60;;;;;;;13.72;69.12;99414.09;4998407;28;20054;-41
2023/07/05 06:49:09;;;;;;;6.25;2.97;;;;;;;13.84;68.80;99418.97;4991339;28;20062;-50
2023/07/05 06:51:35;;;;;;;8.30;2.85;;;;;;;13.93;69.60;99419.59;4992372;28;20053;-39
2023/07/05 06:54:02;;;;;;;7.47;3.28;;;;;;;14.05;69.19;99418.44;4992746;28;20057;-45
2023/07/05 06:56:29;;;;;;;6.50;2.80;;;;;;;14.20;69.23;99427.56;4994994;28;20149;-38
2023/07/05 06:58:55;;;;;;;5.97;2.28;;;;;;;14.35;69.05;99432.34;4997550;28;20097;-41
2023/07/05 07:01:22;;;;;;;6.65;3.22;;;;;;;14.44;68.66;99430.38;4999532;28;20049;-44
2023/07/05 07:03:49;;;;;;;8.35;3.92;;;;;;;14.51;68.88;99437.09;4997839;28;20506;-43
2023/07/05 07:06:16;;;;;;;5.13;2.50;;;;;;;14.52;68.82;99434.47;5000743;28;20050;-39
2023/07/05 07:08:43;;;;;;;5.53;2.80;;;;;;;14.56;68.28;99436.97;4994203;28;20525;-44
2023/07/05 07:11:11;;;;;;;7.47;2.33;;;;;;;14.60;68.52;99442.06;4994195;28;20058;-40
2023/07/05 07:13:38;;;;;;;7.60;2.90;;;;;;;14.65;68.75;99439.31;4992335;28;20554;-44
2023/07/05 07:16:10;;;;;;;7.65;2.50;;;;;;;14.66;68.41;99446.25;4992363;28;20520;-46
2023/07/05 07:18:37;;;;;;;6.80;2.55;;;;;;;14.63;68.31;99444.56;4996927;28;20521;-42
2023/07/05 07:21:07;;;;;;;7.30;2.78;;;;;;;14.59;68.30;99445.56;4998885;28;20053;-46
2023/07/05 07:23:33;;;;;;;6.75;3.58;;;;;;;14.57;68.37;99447.38;4998486;28;20388;-46
2023/07/05 07:26:07;;;;;;;8.02;3.05;;;;;;;14.57;68.04;99449.97;4991468;28;20053;-43
2023/07/05 07:28:33;;;;;;;7.22;3.28;;;;;;;14.59;68.35;99455.97;4996989;28;20049;-46
2023/07/05 07:31:09;;;;;;;10.02;3.13;;;;;;;14.60;68.28;99457.72;4994653;28;20045;-42
2023/07/05 07:33:36;;;;;;;6.63;2.38;;;;;;;14.60;68.66;99460.31;4993297;28;20090;-42
2023/07/05 07:36:08;;;;;;;7.65;2.83;;;;;;;14.64;68.52;99474.97;4997788;28;20130;-44
2023/07/05 07:38:35;;;;;;;6.10;2.65;;;;;;;14.63;68.62;99468.03;5000798;28;20715;-42
2023/07/05 07:41:02;;;;;;;5.50;2.40;;;;;;;14.62;68.52;99476.75;5007194;28;20050;-43
2023/07/05 07:43:28;;;;;;;6.50;2.42;;;;;;;14.63;68.98;99483.66;5005273;28;20050;-44
2023/07/05 07:45:55;;;;;;;8.57;3.25;;;;;;;14.68;68.99;99483.53;5005098;28;20165;-42
2023/07/05 07:48:22;;;;;;;4.75;2.60;;;;;;;14.72;68.98;99484.28;4998825;28;20499;-44
2023/07/05 07:50:49;;;;;;;6.60;3.03;;;;;;;14.76;69.18;99489.38;4994964;28;20046;-45
2023/07/05 07:53:16;;;;;;;4.78;2.67;;;;;;;14.82;68.78;99493.59;5000275;28;20074;-41
2023/07/05 07:55:43;;;;;;;7.15;3.10;;;;;;;14.92;68.90;99494.16;5005254;28;20054;-46
2023/07/05 07:58:10;;;;;;;5.63;3.42;;;;;;;14.99;68.98;99500.03;4994611;28;20611;-44
2023/07/05 08:00:36;;;;;;;7.95;2.80;;;;;;;15.03;68.78;99496.47;5004112;28;20081;-41
2023/07/05 08:03:03;;;;;;;5.05;3.17;;;;;;;15.09;68.56;99501.50;5002009;28;20132;-46
2023/07/05 08:05:30;;;;;;;5.05;2.70;;;;;;;15.15;68.78;99495.22;5001566;28;20052;-43
2023/07/05 08:07:57;;;;;;;7.35;2.83;;;;;;;15.24;69.35;99488.88;5000392;28;20045;-42
2023/07/05 08:10:23;;;;;;;9.77;2.83;;;;;;;15.42;68.52;99498.75;5004512;28;20067;-43
2023/07/05 08:12:50;;;;;;;5.82;2.80;;;;;;;15.75;69.18;99502.06;4995282;28;20703;-42
2023/07/05 08:15:17;;;;;;;5.43;2.60;;;;;;;16.03;68.78;99501.16;5006817;28;20049;-47
2023/07/05 08:17:44;;;;;;;6.00;2.78;;;;;;;16.19;67.89;99499.72;4999474;28;20501;-40
2023/07/05 08:20:13;;;;;;;6.53;2.63;;;;;;;16.41;68.14;99503.31;5007285;28;20049;-46
2023/07/05 08:22:39;;;;;;;6.15;2.88;;;;;;;16.79;68.53;99508.91;4999304;28;20073;-45
2023/07/05 08:25:06;;;;;;;6.28;2.33;;;;;;;17.26;67.37;99511.59;5003654;28;20128;-42
2023/07/05 08:27:33;;;;;;;11.48;2.45;;;;;;;17.65;67.12;99515.28;4999393;28;20085;-47
2023/07/05 08:30:00;;;;;;;3.80;2.60;;;;;;;17.88;65.32;99516.97;5002813;28;20045;-44
2023/07/05 08:32:27;;;;;;;3.80;2.55;;;;;;;18.01;64.87;99524.31;5001645;28;20046;-45
2023/07/05 08:34:54;;;;;;;6.22;2.08;;;;;;;18.04;64.24;99529.41;5004873;28;20082;-48
2023/07/05 08:37:22;;;;;;;5.05;2.13;;;;;;;17.96;62.99;99522.72;5005981;28;20046;-41
2023/07/05 08:39:48;;;;;;;4.47;2.55;;;;;;;17.97;64.01;99528.81;4998842;28;20104;-44
2023/07/05 08:42:41;;;;;;;5.78;2.42;;;;;;;18.15;63.58;99526.34;4994783;28;20053;-43
2023/07/05 08:45:19;;;;;;;4.85;3.13;;;;;;;18.49;63.24;99531.00;4992975;28;20047;-48
2023/07/05 08:50:29;;;;;;;5.25;4.43;;;;;;;18.99;62.13;99526.13;5053435;27;20403;-44
2023/07/05 08:53:08;;;;;;;3.72;2.47;;;;;;;19.12;61.09;99530.88;4990038;28;20138;-42
2023/07/05 08:55:55;;;;;;;3.08;2.72;;;;;;;19.10;60.52;99524.81;5010963;28;20567;-46
2023/07/05 08:58:40;;;;;;;5.32;3.13;;;;;;;19.01;59.56;99526.06;5015714;28;20101;-45
2023/07/05 09:01:15;;;;;;;5.60;2.95;;;;;;;19.00;59.73;99530.50;5024089;28;20549;-43
2023/07/05 09:03:43;;;;;;;3.15;2.50;;;;;;;19.01;59.87;99537.44;5006337;28;20387;-45
2023/07/05 09:06:34;;;;;;;3.50;2.50;;;;;;;18.93;59.66;99539.56;5004332;28;20045;-48
2023/07/05 09:15:22;;;;;;;3.75;1.67;;;;;;;18.67;58.42;99559.94;5050587;28;20394;-41
2023/07/05 09:20:44;;;;;;;3.72;1.92;;;;;;;18.52;59.61;99565.84;5048844;27;20424;-40
2023/07/05 09:23:17;;;;;;;4.03;1.63;;;;;;;18.46;59.52;99567.84;5022156;28;20053;-44
2023/07/05 09:25:48;;;;;;;6.00;2.45;;;;;;;18.41;59.40;99564.53;5018723;28;20143;-45
2023/07/05 09:30:59;;;;;;;3.80;2.65;;;;;;;18.24;59.14;99568.75;5043615;27;20393;-47
2023/07/05 09:33:41;;;;;;;3.47;2.53;;;;;;;18.13;59.44;99576.22;4992606;28;20066;-41
2023/07/05 09:36:19;;;;;;;3.70;2.78;;;;;;;18.11;59.99;99578.06;4985423;28;20129;-44
2023/07/05 09:38:52;;;;;;;3.08;2.78;;;;;;;18.08;59.93;99573.78;4983503;28;20491;-45
2023/07/05 09:41:34;;;;;;;5.88;2.63;;;;;;;18.08;60.18;99567.66;4986951;28;20062;-43
2023/07/05 09:44:00;;;;;;;4.53;3.17;;;;;;;18.18;60.01;99571.66;4977752;28;20042;-48
2023/07/05 09:46:34;;;;;;;4.28;3.08;;;;;;;18.48;59.74;99573.84;4980394;28;20521;-44
2023/07/05 09:49:01;;;;;;;4.07;2.33;;;;;;;18.69;58.84;99575.63;4983853;28;20050;-39
2023/07/05 09:51:30;;;;;;;3.17;1.95;;;;;;;18.80;57.88;99570.75;4984384;28;20051;-45
2023/07/05 09:54:07;;;;;;;2.67;2.15;;;;;;;18.88;58.11;99567.78;5016532;28;20043;-47
2023/07/05 09:56:56;;;;;;;3.28;1.98;;;;;;;18.87;57.15;99566.06;4980352;28;20050;-46
2023/07/05 09:59:22;;;;;;;2.83;1.25;;;;;;;18.85;56.49;99575.78;4984096;28;20402;-46
2023/07/05 10:01:54;;;;;;;2.80;1.70;;;;;;;18.85;56.93;99567.91;4985481;28;20061;-45
2023/07/05 10:04:27;;;;;;;3.45;2.08;;;;;;;18.88;56.61;99576.50;5000226;28;20077;-45
2023/07/05 10:06:55;;;;;;;4.78;2.53;;;;;;;19.06;57.17;99578.34;4985120;28;20054;-43
2023/07/05 10:09:23;;;;;;;3.65;2.40;;;;;;;19.26;55.96;99578.31;5004381;28;20097;-46
2023/07/05 10:11:57;;;;;;;2.97;2.72;;;;;;;19.38;55.60;99583.91;5008101;28;20422;-44
2023/07/05 10:14:28;;;;;;;4.85;2.75;;;;;;;19.62;55.70;99573.19;5001484;28;20506;-49
2023/07/05 10:19:38;;;;;;;4.10;1.25;;;;;;;20.38;55.58;99576.50;5102968;27;20857;-49
2023/07/05 10:22:13;;;;;;;3.83;1.00;;;;;;;20.69;52.70;99577.53;5063184;27;20734;-46
2023/07/05 10:24:46;;;;;;;2.65;1.00;;;;;;;20.92;53.64;99581.63;5037750;28;20050;-45
2023/07/05 10:30:00;;;;;;;2.97;2.08;;;;;;;20.99;51.55;99582.13;5059768;27;20394;-43
2023/07/05 10:32:29;;;;;;;2.53;2.13;;;;;;;20.98;51.54;99590.97;5022268;28;20129;-43
2023/07/05 10:34:56;;;;;;;;;;;;;;;20.83;51.53;99591.75;5001035;28;21507;-46
2023/07/05 10:37:39;;;;;;;2.20;0.73;;;;;;;20.69;51.17;99590.69;5020071;28;20333;-42
2023/07/05 10:40:08;;;;;;;2.50;0.80;;;;;;;20.54;50.83;99592.34;5027026;28;20465;-46
2023/07/05 10:42:38;;;;;;;3.40;2.08;;;;;;;20.41;50.70;99592.94;5019151;28;20049;-42
2023/07/05 10:45:12;;;;;;;2.90;1.83;;;;;;;20.27;48.96;99595.47;5010058;28;20062;-43
2023/07/05 10:47:40;;;;;;;2.95;1.55;;;;;;;20.21;49.94;99606.28;5008769;28;20053;-42
2023/07/05 10:50:09;;;;;;;1.50;0.77;;;;;;;20.01;49.15;99610.75;5000110;28;20426;-41
2023/07/05 10:52:48;;;;;;;2.47;2.00;;;;;;;19.91;49.92;99615.56;5009092;28;20042;-51
2023/07/05 10:55:21;;;;;;;2.42;2.15;;;;;;;19.79;50.46;99622.25;5022634;28;20056;-48
2023/07/05 10:57:53;;;;;;;2.58;1.67;;;;;;;19.73;50.46;99622.56;5017899;28;20486;-45
2023/07/05 11:00:37;;;;;;;2.05;1.75;;;;;;;19.64;49.77;99619.47;5003930;28;20524;-48
2023/07/05 11:05:49;;;;;;;1.83;0.75;;;;;;;19.58;50.16;99624.13;5080086;27;20793;-48
2023/07/05 11:08:20;;;;;;;1.55;0.73;;;;;;;19.62;50.90;99633.59;5046402;28;20049;-49
2023/07/05 11:10:48;;;;;;;1.90;1.27;;;;;;;19.62;50.47;99625.72;5043996;28;20048;-45
2023/07/05 11:13:17;;;;;;;2.08;0.90;;;;;;;19.70;51.30;99631.47;5057928;28;20452;-49
2023/07/05 11:15:45;;;;;;;1.55;0.98;;;;;;;19.77;51.03;99625.00;5038995;28;20053;-42
2023/07/05 11:18:15;;;;;;;2.13;1.05;;;;;;;19.86;50.87;99623.66;5037161;28;20048;-45
2023/07/05 11:20:46;;;;;;;2.28;0.73;;;;;;;20.04;50.87;99635.09;5042162;28;20053;-43
2023/07/05 11:26:31;;;;;;;1.83;1.38;;;;;;;20.52;50.52;99639.78;5060507;27;20387;-45
2023/07/05 11:28:58;;;;;;;1.92;0.88;;;;;;;20.74;50.57;99636.00;5053893;28;20055;-48
2023/07/05 11:50:13;;;;;;;4.75;1.35;;;;;;;21.50;47.78;99649.63;5035250;28;20930;-44
2023/07/05 11:52:44;;;;;;;1.77;1.02;;;;;;;21.28;47.32;99642.06;4998790;28;20046;-46
2023/07/05 11:55:23;;;;;;;1.42;0.98;;;;;;;21.06;46.97;99641.41;5001797;28;20046;-47
2023/07/05 12:00:41;;;;;;;3.85;1.25;;;;;;;20.88;46.90;99652.88;5032725;28;20398;-47
2023/07/05 12:03:30;;;;;;;2.63;0.70;;;;;;;20.75;46.31;99648.25;5018654;28;20053;-43
2023/07/05 12:08:53;;;;;;;1.30;0.60;;;;;;;20.80;46.32;99651.50;5079667;27;20427;-40
2023/07/05 12:11:33;;;;;;;1.42;0.65;;;;;;;20.84;45.74;99651.34;5059553;28;20051;-43
2023/07/05 12:14:01;;;;;;;0.82;0.50;;;;;;;20.98;46.51;99646.25;5043511;28;20079;-41
2023/07/05 12:16:28;;;;;;;4.00;0.50;;;;;;;21.14;46.70;99653.31;5080703;28;20048;-47
2023/07/05 12:18:55;;;;;;;1.30;0.40;;;;;;;21.38;46.32;99650.31;5060994;28;20059;-43
2023/07/05 12:21:22;;;;;;;1.50;0.73;;;;;;;21.49;46.32;99650.56;5059185;28;20048;-45
2023/07/05 12:23:56;;;;;;;1.02;0.82;;;;;;;21.64;46.04;99653.25;5056724;28;20136;-47
2023/07/05 12:26:27;;;;;;;1.40;0.60;;;;;;;21.77;46.33;99645.56;5056630;28;20385;-46
2023/07/05 12:28:55;;;;;;;1.33;0.73;;;;;;;22.00;46.12;99651.31;5052958;28;20128;-47
2023/07/05 12:31:24;;;;;;;1.50;0.57;;;;;;;22.12;45.35;99649.78;5077336;28;20048;-50
2023/07/05 12:33:54;;;;;;;1.77;0.60;;;;;;;22.14;44.73;99655.78;5070912;28;20165;-47
2023/07/05 12:36:21;;;;;;;1.10;0.93;;;;;;;22.03;44.50;99662.56;5066673;28;20052;-46
2023/07/05 12:38:50;;;;;;;1.40;1.20;;;;;;;21.98;43.77;99654.03;5072540;28;20056;-51
2023/07/05 12:41:22;;;;;;;0.90;0.68;;;;;;;22.01;44.10;99664.41;5065945;28;20126;-47
2023/07/05 12:44:03;;;;;;;2.58;1.00;;;;;;;22.07;43.68;99668.50;5073954;28;20094;-47
2023/07/05 12:46:36;;;;;;;2.10;0.77;;;;;;;22.11;43.57;99675.28;5072680;28;20408;-45
2023/07/05 12:49:08;;;;;;;;;;;;;;;21.92;42.94;99670.22;5076904;28;20143;-44
2023/07/05 12:51:47;;;;;;;1.08;0.75;;;;;;;21.95;44.04;99681.44;5104038;27;19920;-41
2023/07/05 12:54:13;;;;;;;3.72;1.15;;;;;;;21.88;43.86;99681.88;5073676;28;20048;-48
2023/07/05 12:56:45;;;;;;;1.67;0.60;;;;;;;21.80;43.96;99691.06;5073974;28;20492;-42